createdAt,value
2022-09-14T00:01:27.063Z,1.85
2022-09-14T00:04:01.834Z,1.70
2022-09-14T00:06:29.196Z,1.85
2022-09-14T00:08:56.443Z,1.90
2022-09-14T00:11:24.216Z,1.67
2022-09-14T00:13:53.511Z,1.55
2022-09-14T00:16:31.335Z,2.05
2022-09-14T00:19:05.769Z,2.00
2022-09-14T00:21:39.394Z,1.63
2022-09-14T00:24:10.473Z,1.58
2022-09-14T00:26:37.590Z,1.55
2022-09-14T00:29:05.017Z,1.60
2022-09-14T00:31:32.756Z,1.67
2022-09-14T00:33:59.441Z,1.73
2022-09-14T00:36:27.284Z,1.80
2022-09-14T00:38:58.413Z,1.67
2022-09-14T00:41:26.339Z,1.80
2022-09-14T00:43:54.213Z,1.58
2022-09-14T00:46:21.212Z,1.98
2022-09-14T00:48:47.865Z,1.83
2022-09-14T00:51:15.501Z,1.67
2022-09-14T00:53:42.236Z,1.63
2022-09-14T00:56:11.581Z,2.00
2022-09-14T00:58:38.915Z,1.63
2022-09-14T01:01:05.736Z,1.67
2022-09-14T01:03:32.462Z,1.58
2022-09-14T01:06:11.296Z,1.63
2022-09-14T01:08:45.389Z,1.52
2022-09-14T01:11:18.172Z,1.63
2022-09-14T01:14:03.762Z,1.50
2022-09-14T01:16:30.608Z,1.73
2022-09-14T01:18:58.647Z,1.73
2022-09-14T01:21:28.335Z,1.85
2022-09-14T01:23:57.605Z,2.25
2022-09-14T01:26:48.029Z,1.65
2022-09-14T01:29:21.126Z,1.80
2022-09-14T01:31:53.942Z,1.90
2022-09-14T01:34:31.897Z,1.95
2022-09-14T01:37:05.796Z,1.77
2022-09-14T01:39:35.090Z,1.88
2022-09-14T01:42:04.521Z,1.58
2022-09-14T01:44:33.210Z,1.77
2022-09-14T01:47:26.614Z,1.80
2022-09-14T01:49:56.228Z,1.58
2022-09-14T01:52:26.108Z,1.75
2022-09-14T01:55:01.564Z,1.58
2022-09-14T01:57:32.741Z,2.28
2022-09-14T02:00:04.527Z,2.25
2022-09-14T02:02:34.751Z,2.42
2022-09-14T02:05:07.278Z,1.83
2022-09-14T02:07:34.745Z,2.50
2022-09-14T02:10:03.428Z,1.95
2022-09-14T02:12:30.140Z,1.52
2022-09-14T02:14:56.783Z,2.33
2022-09-14T02:17:23.433Z,1.90
2022-09-14T02:19:57.333Z,1.80
2022-09-14T02:22:25.422Z,2.17
2022-09-14T02:24:54.799Z,1.63
2022-09-14T02:27:22.009Z,2.22
2022-09-14T02:29:49.010Z,2.05
2022-09-14T02:32:20.765Z,1.80
2022-09-14T02:34:57.347Z,2.13
2022-09-14T02:37:23.969Z,1.80
2022-09-14T02:39:53.286Z,2.22
2022-09-14T02:42:28.947Z,1.88
2022-09-14T02:45:16.764Z,2.22
2022-09-14T02:48:13.034Z,2.22
2022-09-14T02:50:44.517Z,2.40
2022-09-14T02:53:14.636Z,2.38
2022-09-14T02:55:43.843Z,1.90
2022-09-14T02:58:12.760Z,1.52
2022-09-14T03:00:40.555Z,1.85
2022-09-14T03:03:08.320Z,1.85
2022-09-14T03:05:35.096Z,2.17
2022-09-14T03:08:02.067Z,2.03
2022-09-14T03:10:28.851Z,1.65
2022-09-14T03:12:55.387Z,2.00
2022-09-14T03:15:22.052Z,2.03
2022-09-14T03:17:49.425Z,1.90
2022-09-14T03:20:17.290Z,1.80
2022-09-14T03:22:46.626Z,1.70
2022-09-14T03:25:14.562Z,2.08
2022-09-14T03:27:41.191Z,1.77
2022-09-14T03:30:08.846Z,1.85
2022-09-14T03:32:35.614Z,1.90
2022-09-14T03:35:02.559Z,1.67
2022-09-14T03:37:29.134Z,1.52
2022-09-14T03:39:55.855Z,1.92
2022-09-14T03:42:22.538Z,2.10
2022-09-14T03:44:49.102Z,2.33
2022-09-14T03:47:15.703Z,2.40
2022-09-14T03:49:42.253Z,2.20
2022-09-14T03:52:08.930Z,1.80
2022-09-14T03:54:35.558Z,1.58
2022-09-14T03:57:02.193Z,2.10
2022-09-14T03:59:28.900Z,2.20
2022-09-14T04:01:55.475Z,1.67
2022-09-14T04:04:22.266Z,1.83
2022-09-14T04:06:48.865Z,2.00
2022-09-14T04:09:15.500Z,2.38
2022-09-14T04:11:42.156Z,1.88
2022-09-14T04:14:08.962Z,1.60
2022-09-14T04:16:35.830Z,1.85
2022-09-14T04:19:02.971Z,2.10
2022-09-14T04:21:29.727Z,2.25
2022-09-14T04:24:14.240Z,1.80
2022-09-14T04:26:42.117Z,2.63
2022-09-14T04:29:10.813Z,2.25
2022-09-14T04:31:37.680Z,2.40
2022-09-14T04:34:04.892Z,2.65
2022-09-14T04:36:31.643Z,2.97
2022-09-14T04:39:01.915Z,2.33
2022-09-14T04:41:29.236Z,3.33
2022-09-14T04:43:56.323Z,2.53
2022-09-14T04:46:24.328Z,2.22
2022-09-14T04:48:51.170Z,2.13
2022-09-14T04:51:19.220Z,2.13
2022-09-14T04:53:47.060Z,3.22
2022-09-14T04:56:14.367Z,3.30
2022-09-14T04:58:48.333Z,2.72
2022-09-14T05:01:19.360Z,3.30
2022-09-14T05:03:46.131Z,3.33
2022-09-14T05:06:15.050Z,3.45
2022-09-14T05:08:42.083Z,3.70
2022-09-14T05:11:09.923Z,3.28
2022-09-14T05:13:36.562Z,3.72
2022-09-14T05:16:10.121Z,3.38
2022-09-14T05:18:37.257Z,3.03
2022-09-14T05:21:08.376Z,2.92
2022-09-14T05:23:35.633Z,2.70
2022-09-14T05:26:02.277Z,3.03
2022-09-14T05:28:28.962Z,2.80
2022-09-14T05:30:56.031Z,3.22
2022-09-14T05:33:23.113Z,3.30
2022-09-14T05:35:50.202Z,2.80
2022-09-14T05:38:16.849Z,2.67
2022-09-14T05:40:46.240Z,3.63
2022-09-14T05:43:12.920Z,2.88
2022-09-14T05:45:39.516Z,2.80
2022-09-14T05:48:06.133Z,2.28
2022-09-14T05:50:34.314Z,2.47
2022-09-14T05:53:01.057Z,2.17
2022-09-14T05:55:27.655Z,2.50
2022-09-14T05:57:54.209Z,2.50
2022-09-14T06:00:21.960Z,2.88
2022-09-14T06:02:49.616Z,2.33
2022-09-14T06:05:16.713Z,3.20
2022-09-14T06:07:43.427Z,2.63
2022-09-14T06:10:10.474Z,2.97
2022-09-14T06:12:37.152Z,2.42
2022-09-14T06:15:03.856Z,3.75
2022-09-14T06:17:30.709Z,2.55
2022-09-14T06:20:01.045Z,4.70
2022-09-14T06:22:31.420Z,4.07
2022-09-14T06:24:58.229Z,4.47
2022-09-14T06:27:24.992Z,4.80
2022-09-14T06:29:53.909Z,3.00
2022-09-14T06:32:23.461Z,3.97
2022-09-14T06:34:50.157Z,4.63
2022-09-14T06:37:16.922Z,2.63
2022-09-14T06:39:43.678Z,4.97
2022-09-14T06:42:10.444Z,4.22
2022-09-14T06:44:37.218Z,4.38
2022-09-14T06:47:03.921Z,4.13
2022-09-14T06:49:30.645Z,3.58
2022-09-14T06:51:57.724Z,3.50
2022-09-14T06:54:25.554Z,3.80
2022-09-14T06:56:52.273Z,3.50
2022-09-14T06:59:19.080Z,3.30
2022-09-14T07:01:46.442Z,2.67
2022-09-14T07:04:14.455Z,3.15
2022-09-14T07:06:45.807Z,3.67
2022-09-14T07:09:13.887Z,3.60
2022-09-14T07:11:40.758Z,3.70
2022-09-14T07:14:07.413Z,3.50
2022-09-14T07:16:35.161Z,3.83
2022-09-14T07:19:03.217Z,3.75
2022-09-14T07:21:31.270Z,3.58
2022-09-14T07:23:58.007Z,3.17
2022-09-14T07:26:25.774Z,3.97
2022-09-14T07:28:57.119Z,3.78
2022-09-14T07:31:31.190Z,4.40
2022-09-14T07:33:58.892Z,4.90
2022-09-14T07:36:26.190Z,3.08
2022-09-14T07:38:53.559Z,3.55
2022-09-14T07:41:21.484Z,3.25
2022-09-14T07:43:51.852Z,3.33
2022-09-14T07:46:18.982Z,3.45
2022-09-14T07:48:45.751Z,3.40
2022-09-14T07:51:12.691Z,3.53
2022-09-14T07:53:40.670Z,3.67
2022-09-14T07:56:10.750Z,3.65
2022-09-14T07:58:37.570Z,4.00
2022-09-14T08:01:05.507Z,3.53
2022-09-14T08:03:32.239Z,3.53
2022-09-14T08:06:03.170Z,3.03
2022-09-14T08:08:30.914Z,4.72
2022-09-14T08:11:03.519Z,3.22
2022-09-14T08:13:31.118Z,3.38
2022-09-14T08:16:00.991Z,4.13
2022-09-14T08:18:28.833Z,3.35
2022-09-14T08:20:55.974Z,3.22
2022-09-14T08:23:22.853Z,2.75
2022-09-14T08:25:49.860Z,3.20
2022-09-14T08:28:16.465Z,3.95
2022-09-14T08:30:43.447Z,2.65
2022-09-14T08:33:10.079Z,3.80
2022-09-14T08:35:57.519Z,2.60
2022-09-14T08:38:25.023Z,3.75
2022-09-14T08:40:51.807Z,3.78
2022-09-14T08:43:19.666Z,3.42
2022-09-14T08:45:48.101Z,3.33
2022-09-14T08:48:25.478Z,2.75
2022-09-14T08:50:54.980Z,3.17
2022-09-14T08:53:22.513Z,3.40
2022-09-14T08:55:52.285Z,2.97
2022-09-14T08:58:31.082Z,2.88
2022-09-14T09:01:03.095Z,3.45
2022-09-14T09:03:29.753Z,3.42
2022-09-14T09:06:15.588Z,2.72
2022-09-14T09:09:03.173Z,3.65
2022-09-14T09:11:36.111Z,3.10
2022-09-14T09:14:04.479Z,3.20
2022-09-14T09:16:31.375Z,3.08
2022-09-14T09:19:03.377Z,3.28
2022-09-14T09:21:39.131Z,3.13
2022-09-14T09:24:29.106Z,2.97
2022-09-14T09:26:55.893Z,4.32
2022-09-14T09:29:22.601Z,2.65
2022-09-14T09:31:51.800Z,3.25
2022-09-14T09:34:22.488Z,3.05
2022-09-14T09:36:49.950Z,3.78
2022-09-14T09:39:17.038Z,3.40
2022-09-14T09:41:48.903Z,2.38
2022-09-14T09:44:15.726Z,2.88
2022-09-14T09:46:45.553Z,2.78
2022-09-14T09:49:23.204Z,2.53
2022-09-14T09:51:51.040Z,3.53
2022-09-14T09:54:29.322Z,2.70
2022-09-14T09:56:56.008Z,3.42
2022-09-14T09:59:35.987Z,2.78
2022-09-14T10:02:22.713Z,2.97
2022-09-14T10:05:08.380Z,3.03
2022-09-14T10:07:36.999Z,3.97
2022-09-14T10:10:14.796Z,4.03
2022-09-14T10:13:01.766Z,3.40
2022-09-14T10:15:30.695Z,3.08
2022-09-14T10:18:00.411Z,3.55
2022-09-14T10:20:30.803Z,3.78
2022-09-14T10:23:14.677Z,3.83
2022-09-14T10:25:43.356Z,3.10
2022-09-14T10:28:21.440Z,3.20
2022-09-14T10:30:51.970Z,3.70
2022-09-14T10:33:18.868Z,3.50
2022-09-14T10:35:51.741Z,3.03
2022-09-14T10:38:37.530Z,3.83
2022-09-14T10:41:04.208Z,3.28
2022-09-14T10:43:39.170Z,2.03
2022-09-14T10:46:10.462Z,2.85
2022-09-14T10:48:47.518Z,3.33
2022-09-14T10:51:14.249Z,3.15
2022-09-14T10:53:48.827Z,2.55
2022-09-14T10:56:22.202Z,2.83
2022-09-14T10:58:51.713Z,2.83
2022-09-14T11:01:21.123Z,2.88
2022-09-14T11:04:00.330Z,3.08
2022-09-14T11:06:39.472Z,2.40
2022-09-14T11:09:14.920Z,2.03
2022-09-14T11:12:08.152Z,2.00
2022-09-14T11:14:44.528Z,1.88
2022-09-14T11:17:18.689Z,2.13
2022-09-14T11:19:53.449Z,2.55
2022-09-14T11:22:41.366Z,2.30
2022-09-14T11:25:08.887Z,3.00
2022-09-14T11:27:44.168Z,3.00
2022-09-14T11:30:35.687Z,2.58
2022-09-14T11:33:04.999Z,2.70
2022-09-14T11:35:37.921Z,2.92
2022-09-14T11:38:21.078Z,2.83
2022-09-14T11:40:52.417Z,2.25
2022-09-14T11:43:23.756Z,2.42
2022-09-14T11:45:52.834Z,2.60
2022-09-14T11:48:42.342Z,2.42
2022-09-14T11:51:15.587Z,2.88
2022-09-14T11:53:42.987Z,2.85
2022-09-14T11:56:24.690Z,2.92
2022-09-14T11:58:52.402Z,2.90
2022-09-14T12:01:38.598Z,2.72
2022-09-14T12:04:07.270Z,3.38
2022-09-14T12:06:37.076Z,3.42
2022-09-14T12:09:30.090Z,2.97
2022-09-14T12:11:58.524Z,3.13
2022-09-14T12:14:27.591Z,2.80
2022-09-14T12:17:35.643Z,2.38
2022-09-14T12:20:20.580Z,3.40
2022-09-14T12:22:50.083Z,2.42
2022-09-14T12:25:18.308Z,2.90
2022-09-14T12:27:47.241Z,3.20
2022-09-14T12:30:38.287Z,2.60
2022-09-14T12:33:25.788Z,1.63
2022-09-14T12:35:52.702Z,2.45
2022-09-14T12:38:31.635Z,3.15
2022-09-14T12:41:10.260Z,3.15
2022-09-14T12:43:37.163Z,2.63
2022-09-14T12:46:03.861Z,3.47
2022-09-14T12:49:03.553Z,3.28
2022-09-14T12:51:30.172Z,2.95
2022-09-14T12:54:03.130Z,2.17
2022-09-14T12:56:29.741Z,2.72
2022-09-14T12:59:01.800Z,2.03
2022-09-14T13:01:28.783Z,3.42
2022-09-14T13:03:56.252Z,3.38
2022-09-14T13:06:23.670Z,2.90
2022-09-14T13:08:53.033Z,3.35
2022-09-14T13:11:40.602Z,4.82
2022-09-14T13:14:11.735Z,3.65
2022-09-14T13:16:43.830Z,3.95
2022-09-14T13:19:22.454Z,3.35
2022-09-14T13:21:49.956Z,3.20
2022-09-14T13:24:36.514Z,2.63
2022-09-14T13:27:03.661Z,2.40
2022-09-14T13:29:31.291Z,2.55
2022-09-14T13:32:03.302Z,3.75
2022-09-14T13:34:31.833Z,3.67
2022-09-14T13:36:58.675Z,3.72
2022-09-14T13:39:36.028Z,3.55
2022-09-14T13:42:03.197Z,2.55
2022-09-14T13:44:32.113Z,2.40
2022-09-14T13:46:59.904Z,3.10
2022-09-14T13:49:26.851Z,2.83
2022-09-14T13:52:13.386Z,3.38
2022-09-14T13:54:39.987Z,3.13
2022-09-14T13:57:17.434Z,2.60
2022-09-14T14:00:02.853Z,2.35
2022-09-14T14:02:31.721Z,2.30
2022-09-14T14:04:58.493Z,3.28
2022-09-14T14:07:28.283Z,2.90
2022-09-14T14:09:56.046Z,3.30
2022-09-14T14:12:22.716Z,3.65
2022-09-14T14:14:53.129Z,3.40
2022-09-14T14:17:24.593Z,2.22
2022-09-14T14:19:52.702Z,2.55
2022-09-14T14:22:20.581Z,3.10
2022-09-14T14:25:12.981Z,2.63
2022-09-14T14:27:43.266Z,2.88
2022-09-14T14:30:14.641Z,2.05
2022-09-14T14:32:41.366Z,2.58
2022-09-14T14:35:14.826Z,2.75
2022-09-14T14:37:41.410Z,2.63
2022-09-14T14:40:08.706Z,2.42
2022-09-14T14:42:35.383Z,3.05
2022-09-14T14:45:02.393Z,3.22
2022-09-14T14:47:29.193Z,2.17
2022-09-14T14:49:55.832Z,2.72
2022-09-14T14:52:22.393Z,3.40
2022-09-14T14:54:49.074Z,2.70
2022-09-14T14:57:16.185Z,3.00
2022-09-14T14:59:42.812Z,2.88
2022-09-14T15:02:09.588Z,2.63
2022-09-14T15:04:36.275Z,2.75
2022-09-14T15:07:02.865Z,2.92
2022-09-14T15:09:30.144Z,3.05
2022-09-14T15:11:56.907Z,2.90
2022-09-14T15:14:26.887Z,2.85
2022-09-14T15:16:58.192Z,2.63
2022-09-14T15:19:24.985Z,3.53
2022-09-14T15:21:51.649Z,2.80
2022-09-14T15:24:18.292Z,2.40
2022-09-14T15:26:44.993Z,3.78
2022-09-14T15:29:13.800Z,3.70
2022-09-14T15:31:41.082Z,3.65
2022-09-14T15:34:07.765Z,2.95
2022-09-14T15:36:40.424Z,2.63
2022-09-14T15:39:08.704Z,6.15
2022-09-14T15:41:35.305Z,5.03
2022-09-14T15:44:03.951Z,6.03
2022-09-14T15:46:31.315Z,4.25
2022-09-14T15:48:58.045Z,4.68
2022-09-14T15:51:25.229Z,5.20
2022-09-14T15:53:53.159Z,3.40
2022-09-14T15:56:19.984Z,2.88
2022-09-14T15:58:48.200Z,2.92
2022-09-14T16:01:16.064Z,3.58
2022-09-14T16:03:43.039Z,2.92
2022-09-14T16:06:10.474Z,3.30
2022-09-14T16:08:37.841Z,3.17
2022-09-14T16:11:05.358Z,2.97
2022-09-14T16:13:33.040Z,3.20
2022-09-14T16:16:04.477Z,3.47
2022-09-14T16:18:31.533Z,2.78
2022-09-14T16:21:03.413Z,2.67
2022-09-14T16:23:30.373Z,3.25
2022-09-14T16:25:56.999Z,3.10
2022-09-14T16:28:23.757Z,3.20
2022-09-14T16:30:50.430Z,3.33
2022-09-14T16:33:17.699Z,3.42
2022-09-14T16:35:44.392Z,3.33
2022-09-14T16:38:11.129Z,3.10
2022-09-14T16:40:42.250Z,2.80
2022-09-14T16:43:09.544Z,3.28
2022-09-14T16:45:36.453Z,2.90
2022-09-14T16:48:03.169Z,3.70
2022-09-14T16:50:29.784Z,3.28
2022-09-14T16:52:56.517Z,5.38
2022-09-14T16:55:23.356Z,4.53
2022-09-14T16:57:50.237Z,4.35
2022-09-14T17:00:17.014Z,3.88
2022-09-14T17:02:43.800Z,5.88
2022-09-14T17:05:14.031Z,6.88
2022-09-14T17:07:44.111Z,5.38
2022-09-14T17:10:10.786Z,4.35
2022-09-14T17:12:37.520Z,5.25
2022-09-14T17:15:04.349Z,5.13
2022-09-14T17:17:33.486Z,4.68
2022-09-14T17:20:00.434Z,4.38
2022-09-14T17:22:27.242Z,4.00
2022-09-14T17:24:53.999Z,3.83
2022-09-14T17:27:20.669Z,2.83
2022-09-14T17:29:47.318Z,2.50
2022-09-14T17:32:15.045Z,4.38
2022-09-14T17:34:41.832Z,4.28
2022-09-14T17:37:08.495Z,4.57
2022-09-14T17:39:35.256Z,4.53
2022-09-14T17:42:01.895Z,4.00
2022-09-14T17:44:31.471Z,3.88
2022-09-14T17:46:58.029Z,4.80
2022-09-14T17:49:24.810Z,3.50
2022-09-14T17:51:51.496Z,3.47
2022-09-14T17:54:21.303Z,3.50
2022-09-14T17:56:48.109Z,2.25
2022-09-14T17:59:17.676Z,1.23
2022-09-14T18:01:44.295Z,1.05
2022-09-14T18:04:12.278Z,1.20
2022-09-14T18:06:40.665Z,1.00
2022-09-14T18:09:09.439Z,0.93
2022-09-14T18:11:36.623Z,1.25
2022-09-14T18:14:04.202Z,1.65
2022-09-14T18:16:30.936Z,1.33
2022-09-14T18:18:57.870Z,0.90
2022-09-14T18:21:24.896Z,1.33
2022-09-14T18:23:51.975Z,1.17
2022-09-14T18:26:18.987Z,1.02
2022-09-14T18:28:46.564Z,1.27
2022-09-14T18:31:14.334Z,1.88
2022-09-14T18:33:48.630Z,1.50
2022-09-14T18:36:15.428Z,1.27
2022-09-14T18:38:42.170Z,1.33
2022-09-14T18:41:09.590Z,1.40
2022-09-14T18:43:36.238Z,1.05
2022-09-14T18:46:06.841Z,1.20
2022-09-14T18:48:37.048Z,1.13
2022-09-14T18:51:06.206Z,1.60
2022-09-14T18:53:33.147Z,1.10
2022-09-14T18:56:04.117Z,1.27
2022-09-14T18:58:34.914Z,1.02
2022-09-14T19:01:01.835Z,1.00
2022-09-14T19:03:28.553Z,1.10
2022-09-14T19:05:55.142Z,1.17
2022-09-14T19:08:22.123Z,1.00
2022-09-14T19:10:48.728Z,0.90
2022-09-14T19:13:15.269Z,1.30
2022-09-14T19:15:42.009Z,1.10
2022-09-14T19:18:09.180Z,1.10
2022-09-14T19:21:04.852Z,1.00
2022-09-14T19:23:26.143Z,1.00
2022-09-14T19:25:52.805Z,0.80
2022-09-14T19:28:19.553Z,0.80
2022-09-14T19:30:46.705Z,1.10
2022-09-14T19:33:13.638Z,1.38
2022-09-14T19:35:40.895Z,1.05
2022-09-14T19:38:07.583Z,1.05
2022-09-14T19:40:34.604Z,1.08
2022-09-14T19:43:01.297Z,1.15
2022-09-14T19:45:30.686Z,0.80
2022-09-14T19:47:59.777Z,1.10
2022-09-14T19:50:26.448Z,0.90
2022-09-14T19:52:53.553Z,0.90
2022-09-14T19:55:20.404Z,1.10
2022-09-14T19:57:48.356Z,0.90
2022-09-14T20:00:18.175Z,0.95
2022-09-14T20:02:45.462Z,0.80
2022-09-14T20:05:12.106Z,1.10
2022-09-14T20:07:38.678Z,0.98
2022-09-14T20:10:05.533Z,1.00
2022-09-14T20:12:32.110Z,1.20
2022-09-14T20:14:58.828Z,0.93
2022-09-14T20:17:25.395Z,0.80
2022-09-14T20:19:51.976Z,0.95
2022-09-14T20:22:18.591Z,0.82
2022-09-14T20:24:45.737Z,1.02
2022-09-14T20:27:12.730Z,1.00
2022-09-14T20:29:39.581Z,0.90
2022-09-14T20:32:06.124Z,1.20
2022-09-14T20:34:32.787Z,1.25
2022-09-14T20:37:02.329Z,1.17
2022-09-14T20:39:29.696Z,0.90
2022-09-14T20:41:56.327Z,0.90
2022-09-14T20:44:23.412Z,1.08
2022-09-14T20:46:50.393Z,1.10
2022-09-14T20:49:19.198Z,0.80
2022-09-14T20:51:45.820Z,1.00
2022-09-14T20:54:13.094Z,0.88
2022-09-14T20:56:40.209Z,0.95
2022-09-14T20:59:08.489Z,0.93
2022-09-14T21:01:35.858Z,0.90
2022-09-14T21:04:04.372Z,1.00
2022-09-14T21:06:31.617Z,0.88
2022-09-14T21:09:00.042Z,0.90
2022-09-14T21:11:27.326Z,0.90
2022-09-14T21:13:54.515Z,0.80
2022-09-14T21:16:23.710Z,1.00
2022-09-14T21:18:57.902Z,1.10
2022-09-14T21:21:24.776Z,1.05
2022-09-14T21:23:52.708Z,0.70
2022-09-14T21:26:19.991Z,0.70
2022-09-14T21:28:46.849Z,0.90
2022-09-14T21:31:18.996Z,0.70
2022-09-14T21:33:46.984Z,0.82
2022-09-14T21:36:14.945Z,1.00
2022-09-14T21:38:41.881Z,1.10
2022-09-14T21:41:10.755Z,1.00
2022-09-14T21:43:41.081Z,0.80
2022-09-14T21:46:08.574Z,1.00
2022-09-14T21:48:36.278Z,0.90
2022-09-14T21:51:07.952Z,0.90
2022-09-14T21:53:35.202Z,1.20
2022-09-14T21:56:05.628Z,0.95
2022-09-14T21:58:32.594Z,0.80
2022-09-14T22:01:00.174Z,0.88
2022-09-14T22:03:27.300Z,1.00
2022-09-14T22:05:56.723Z,0.90
2022-09-14T22:08:23.667Z,1.27
2022-09-14T22:10:50.310Z,1.30
2022-09-14T22:13:16.888Z,1.20
2022-09-14T22:15:43.606Z,1.10
2022-09-14T22:18:10.276Z,1.20
2022-09-14T22:20:36.935Z,0.90
2022-09-14T22:23:03.591Z,1.00
2022-09-14T22:25:30.419Z,1.05
2022-09-14T22:27:57.074Z,0.73
2022-09-14T22:30:23.695Z,0.93
2022-09-14T22:32:50.245Z,1.10
2022-09-14T22:35:16.912Z,1.10
2022-09-14T22:37:44.757Z,1.30
2022-09-14T22:40:11.436Z,1.48
2022-09-14T22:42:38.083Z,1.30
2022-09-14T22:45:04.804Z,1.40
2022-09-14T22:47:31.434Z,1.15
2022-09-14T22:49:58.032Z,1.50
2022-09-14T22:52:24.607Z,1.80
2022-09-14T22:54:51.122Z,1.60
2022-09-14T22:57:18.381Z,1.90
2022-09-14T22:59:45.041Z,2.10
2022-09-14T23:02:11.814Z,1.35
2022-09-14T23:04:38.459Z,1.45
2022-09-14T23:07:06.916Z,1.83
2022-09-14T23:09:33.466Z,1.75
2022-09-14T23:12:00.202Z,1.42
2022-09-14T23:14:26.842Z,1.50
2022-09-14T23:16:53.558Z,1.75
2022-09-14T23:19:20.276Z,1.52
2022-09-14T23:21:47.185Z,1.80
2022-09-14T23:24:13.975Z,1.70
2022-09-14T23:26:40.758Z,1.33
2022-09-14T23:29:09.561Z,1.63
2022-09-14T23:31:36.228Z,1.27
2022-09-14T23:34:03.543Z,1.70
2022-09-14T23:36:30.280Z,2.08
2022-09-14T23:38:57.060Z,1.60
2022-09-14T23:41:24.335Z,1.52
2022-09-14T23:43:51.447Z,1.50
2022-09-14T23:46:18.322Z,1.75
2022-09-14T23:48:45.287Z,1.20
2022-09-14T23:51:12.411Z,1.10
2022-09-14T23:53:39.355Z,1.75
2022-09-14T23:56:06.173Z,1.50
2022-09-14T23:58:32.772Z,1.20
